Time;durP1;ratioP1;P1;durP2;ratioP2;P2;SDS_P1;SDS_P2;PMS_P1;PMS_P2;Temp;Humidity;BMP_temperature;BMP_pressure;BME280_temperature;BME280_humidity;BME280_pressure;Samples;Min_cycle;Max_cycle;Signal;HPM_P1;HPM_P2
2021/04/04 00:01:24;;;;;;;30.40;13.35;;;;;;;5.68;67.36;102167.72;4391008;32;20100;-74
2021/04/04 00:03:50;;;;;;;32.70;13.27;;;;;;;5.52;67.86;102169.81;4392126;32;20894;-73
2021/04/04 00:06:16;;;;;;;38.55;12.37;;;;;;;5.46;68.02;102165.72;4390803;32;20083;-74
2021/04/04 00:08:43;;;;;;;42.83;17.23;;;;;;;5.30;68.62;102151.03;4392693;32;20117;-74
2021/04/04 00:11:09;;;;;;;40.70;13.18;;;;;;;5.24;68.97;102154.47;4391512;32;20135;-73
2021/04/04 00:13:35;;;;;;;35.17;14.50;;;;;;;5.48;68.22;102146.62;4389624;32;20054;-73
2021/04/04 00:16:01;;;;;;;31.77;12.70;;;;;;;5.33;68.49;102141.13;4390768;32;20111;-73
2021/04/04 00:18:27;;;;;;;38.75;13.48;;;;;;;5.34;68.62;102142.75;4385549;32;20070;-74
2021/04/04 00:20:52;;;;;;;34.75;12.02;;;;;;;5.50;68.13;102137.88;4391414;32;20073;-73
2021/04/04 00:23:18;;;;;;;35.80;13.13;;;;;;;5.28;68.71;102136.62;4390268;32;20112;-74
2021/04/04 00:25:45;;;;;;;34.08;11.85;;;;;;;5.26;68.89;102130.63;4389778;32;20053;-74
2021/04/04 00:28:10;;;;;;;31.42;12.13;;;;;;;5.24;68.93;102127.41;4387093;32;20156;-74
2021/04/04 00:30:36;;;;;;;46.88;12.98;;;;;;;5.23;68.95;102127.75;4389849;32;20064;-74
2021/04/04 00:33:02;;;;;;;33.97;12.40;;;;;;;5.24;69.01;102124.59;4390796;32;20147;-74
2021/04/04 00:35:28;;;;;;;31.45;11.40;;;;;;;5.16;69.04;102108.88;4389721;32;20058;-73
2021/04/04 00:37:54;;;;;;;45.45;12.40;;;;;;;5.29;68.84;102115.94;4388932;32;20054;-74
2021/04/04 00:40:27;;;;;;;32.42;10.70;;;;;;;5.11;69.00;102112.00;4393397;32;20070;-73
2021/04/04 00:42:53;;;;;;;31.48;11.15;;;;;;;5.07;69.30;102115.88;4390576;32;20078;-74
2021/04/04 00:47:55;;;;;;;33.78;11.75;;;;;;;5.53;68.40;102123.94;3954252;32;15779442;-74
2021/04/04 00:50:27;;;;;;;38.03;11.57;;;;;;;5.53;68.40;102123.94;4433122;32;20026;-74
2021/04/04 00:52:53;;;;;;;29.33;11.07;;;;;;;4.95;69.63;102111.28;4434878;32;20178;-74
2021/04/04 00:55:20;;;;;;;24.95;10.25;;;;;;;4.86;70.00;102107.06;4431921;32;20065;-74
2021/04/04 00:57:46;;;;;;;27.75;10.43;;;;;;;4.77;70.59;102100.91;4435476;32;20053;-74
2021/04/04 01:00:14;;;;;;;29.65;10.63;;;;;;;4.72;70.70;102107.59;4436750;32;20421;-74
2021/04/04 01:02:41;;;;;;;28.20;10.43;;;;;;;4.78;70.33;102103.31;4416460;32;20124;-74
2021/04/04 01:05:10;;;;;;;30.25;9.35;;;;;;;4.74;70.58;102094.09;4424835;32;20422;-74
2021/04/04 01:07:38;;;;;;;34.28;11.10;;;;;;;4.69;70.85;102091.56;4424631;32;20029;-74
2021/04/04 01:10:07;;;;;;;31.27;9.98;;;;;;;4.70;70.72;102090.44;4428210;32;20520;-74
2021/04/04 01:13:00;;;;;;;34.38;10.38;;;;;;;4.70;70.88;102084.03;4426887;32;20102;-74
2021/04/04 01:15:31;;;;;;;31.85;10.65;;;;;;;4.87;69.94;102076.03;4425765;32;20064;-74
2021/04/04 01:18:02;;;;;;;31.67;9.95;;;;;;;4.83;70.20;102066.78;4425503;32;20141;-74
2021/04/04 01:20:34;;;;;;;30.15;10.13;;;;;;;4.82;70.47;102067.16;4426109;32;20110;-74
2021/04/04 01:23:26;;;;;;;29.87;9.90;;;;;;;4.76;70.20;102065.84;4426493;32;20172;-74
2021/04/04 01:26:09;;;;;;;32.22;10.35;;;;;;;4.77;70.33;102059.06;4425553;32;20033;-74
2021/04/04 01:28:39;;;;;;;23.77;9.63;;;;;;;4.73;70.43;102053.44;4424730;32;20059;-74
2021/04/04 01:31:07;;;;;;;26.80;9.93;;;;;;;4.70;71.07;102056.97;4425511;32;20123;-74
2021/04/04 01:33:35;;;;;;;37.78;10.38;;;;;;;4.69;71.01;102051.75;4424940;32;20112;-74
2021/04/04 01:36:03;;;;;;;35.90;10.90;;;;;;;4.72;70.95;102054.59;4426709;32;20037;-74
2021/04/04 01:38:33;;;;;;;30.40;10.70;;;;;;;4.72;70.91;102051.81;4417855;32;20463;-75
2021/04/04 01:41:10;;;;;;;34.10;10.10;;;;;;;4.66;71.27;102047.69;4426348;32;20045;-74
2021/04/04 01:43:40;;;;;;;39.45;11.80;;;;;;;4.68;71.35;102044.53;4425624;32;20153;-74
2021/04/04 01:46:06;;;;;;;35.20;11.25;;;;;;;4.73;70.79;102042.28;4425462;32;20080;-74
2021/04/04 01:48:34;;;;;;;25.02;10.30;;;;;;;4.69;71.10;102037.81;4425592;32;20041;-74
2021/04/04 01:51:01;;;;;;;35.97;10.88;;;;;;;4.69;71.08;102032.25;4427816;32;20065;-74
2021/04/04 01:53:27;;;;;;;33.25;9.90;;;;;;;4.63;71.35;102036.50;4427789;32;20041;-74
2021/04/04 01:55:53;;;;;;;36.78;10.05;;;;;;;4.58;71.50;102033.97;4426899;32;20041;-74
2021/04/04 01:58:19;;;;;;;28.65;10.13;;;;;;;4.58;71.32;102032.00;4421528;32;20489;-74
2021/04/04 02:00:46;;;;;;;37.22;10.60;;;;;;;4.81;70.50;102034.84;4416128;32;20084;-74
2021/04/04 02:03:14;;;;;;;29.83;10.10;;;;;;;4.80;70.44;102022.09;4415011;32;20074;-74
2021/04/04 02:05:42;;;;;;;33.60;11.40;;;;;;;4.80;70.50;102022.09;4416698;32;20474;-74
2021/04/04 02:08:09;;;;;;;34.05;9.75;;;;;;;4.83;70.32;102013.78;4413644;32;20030;-74
2021/04/04 02:10:37;;;;;;;34.28;10.52;;;;;;;4.78;70.53;102019.66;4414173;32;21145;-74
2021/04/04 02:13:05;;;;;;;27.65;10.43;;;;;;;4.72;70.61;102007.19;4411726;32;20448;-74
2021/04/04 02:15:32;;;;;;;33.15;9.70;;;;;;;4.53;71.42;102007.22;4414065;32;20098;-75
2021/04/04 02:17:59;;;;;;;31.12;10.23;;;;;;;4.49;71.58;101999.94;4415246;32;20077;-74
2021/04/04 02:20:27;;;;;;;45.75;12.32;;;;;;;4.47;71.85;102005.06;4415256;32;20142;-74
2021/04/04 02:22:54;;;;;;;42.78;10.02;;;;;;;4.43;71.79;101999.44;4414626;32;20077;-74
2021/04/04 02:25:21;;;;;;;38.03;12.10;;;;;;;4.62;71.40;101988.28;4416528;32;20045;-74
2021/04/04 02:27:47;;;;;;;23.92;9.90;;;;;;;4.41;72.01;101993.41;4413430;32;20135;-74
2021/04/04 02:30:16;;;;;;;40.47;10.82;;;;;;;4.39;72.14;101992.19;4416519;32;20076;-74
2021/04/04 02:32:49;;;;;;;35.47;10.70;;;;;;;4.31;72.76;101980.06;4407011;32;20441;-74
2021/04/04 02:35:22;;;;;;;36.17;9.23;;;;;;;4.29;72.94;101982.41;4415261;32;20084;-74
2021/04/04 02:37:48;;;;;;;36.00;10.02;;;;;;;4.30;72.92;101986.00;4413169;32;20066;-74
2021/04/04 02:40:15;;;;;;;32.47;9.35;;;;;;;4.32;72.86;101983.69;4415752;32;20075;-74
2021/04/04 02:42:45;;;;;;;26.62;8.95;;;;;;;4.27;73.03;101976.41;4414725;32;20602;-74
2021/04/04 02:45:12;;;;;;;33.65;9.00;;;;;;;4.31;73.03;101963.34;4414484;32;20068;-74
2021/04/04 02:47:59;;;;;;;30.20;10.90;;;;;;;4.23;73.18;101969.94;4412728;32;20083;-74
2021/04/04 02:50:26;;;;;;;27.05;10.15;;;;;;;4.26;73.37;101958.06;4414330;32;20033;-74
2021/04/04 02:52:58;;;;;;;33.35;10.25;;;;;;;4.24;73.14;101960.44;4414480;32;20041;-74
2021/04/04 02:55:26;;;;;;;37.97;11.18;;;;;;;4.26;73.10;101960.06;4414102;32;20094;-74
2021/04/04 02:57:53;;;;;;;46.88;10.13;;;;;;;4.23;72.97;101953.22;4414123;32;20377;-74
2021/04/04 03:00:21;;;;;;;32.80;10.45;;;;;;;4.20;73.17;101953.94;4414389;32;20130;-74
2021/04/04 03:02:48;;;;;;;32.97;9.55;;;;;;;4.21;72.91;101940.84;4412837;32;20034;-74
2021/04/04 03:05:14;;;;;;;29.33;9.25;;;;;;;4.16;73.19;101944.72;4414788;32;20042;-74
2021/04/04 03:07:43;;;;;;;25.77;8.85;;;;;;;4.29;72.93;101940.59;4413344;32;20103;-74
2021/04/04 03:10:10;;;;;;;27.15;8.68;;;;;;;4.14;73.19;101941.47;4413439;32;20145;-74
2021/04/04 03:12:38;;;;;;;27.05;8.65;;;;;;;4.11;73.24;101945.81;4415250;32;20454;-74
2021/04/04 03:15:09;;;;;;;26.20;8.57;;;;;;;4.09;73.35;101945.37;4414078;32;20030;-74
2021/04/04 03:17:39;;;;;;;30.55;9.38;;;;;;;4.07;73.75;101931.00;4414801;32;20123;-74
2021/04/04 03:20:08;;;;;;;23.87;8.75;;;;;;;4.08;73.80;101932.63;4409377;32;20494;-74
2021/04/04 03:22:36;;;;;;;26.45;8.93;;;;;;;4.11;73.53;101925.50;4404650;32;20412;-74
2021/04/04 03:25:03;;;;;;;26.15;9.13;;;;;;;4.05;73.61;101921.37;4414676;32;20082;-74
2021/04/04 03:27:29;;;;;;;26.75;8.85;;;;;;;4.01;73.78;101918.56;4414304;32;20065;-74
2021/04/04 03:29:55;;;;;;;27.27;8.82;;;;;;;4.02;73.93;101916.59;4413112;32;20046;-74
2021/04/04 03:32:22;;;;;;;33.95;8.95;;;;;;;3.97;74.05;101914.06;4414374;32;20094;-74
2021/04/04 03:34:47;;;;;;;21.08;7.60;;;;;;;3.93;74.23;101913.19;4415300;32;20060;-74
2021/04/04 03:37:14;;;;;;;22.85;8.40;;;;;;;3.88;74.49;101919.88;4412497;32;20858;-74
2021/04/04 03:39:40;;;;;;;25.52;8.20;;;;;;;3.90;74.44;101903.56;4406802;32;20469;-74
2021/04/04 03:42:07;;;;;;;25.37;8.23;;;;;;;3.95;74.27;101906.09;4415262;32;20094;-74
2021/04/04 03:44:38;;;;;;;28.87;8.00;;;;;;;3.94;74.38;101901.69;4412808;32;20087;-74
2021/04/04 03:47:04;;;;;;;29.17;9.07;;;;;;;3.91;74.76;101901.59;4412101;32;20161;-74
2021/04/04 03:49:30;;;;;;;24.30;8.70;;;;;;;3.85;74.89;101901.09;4414647;32;20081;-74
2021/04/04 03:51:59;;;;;;;24.70;8.90;;;;;;;3.85;74.87;101892.75;4413286;32;20067;-74
2021/04/04 03:54:26;;;;;;;27.92;8.75;;;;;;;3.88;74.72;101888.41;4414035;32;20256;-74
2021/04/04 03:56:55;;;;;;;22.33;8.48;;;;;;;3.84;74.56;101887.53;4413307;32;20042;-74
2021/04/04 03:59:23;;;;;;;29.15;8.25;;;;;;;3.83;74.56;101883.94;4412679;32;20112;-74
2021/04/04 04:01:50;;;;;;;34.60;9.15;;;;;;;3.81;74.71;101880.72;4413703;32;20064;-74
2021/04/04 04:04:18;;;;;;;25.70;8.27;;;;;;;3.79;75.00;101888.63;4412327;32;20394;-74
2021/04/04 04:06:45;;;;;;;26.80;8.43;;;;;;;3.78;74.87;101878.66;4412840;32;20077;-74
2021/04/04 04:09:15;;;;;;;27.90;9.07;;;;;;;3.80;75.05;101883.84;4411955;32;20041;-74
2021/04/04 04:11:44;;;;;;;29.05;8.43;;;;;;;3.80;74.91;101889.41;4414570;32;20590;-74
2021/04/04 04:14:12;;;;;;;23.40;7.68;;;;;;;3.79;75.09;101897.00;4413824;32;20066;-74
2021/04/04 04:16:39;;;;;;;35.22;8.95;;;;;;;4.00;74.40;101883.53;4414793;32;20121;-74
2021/04/04 04:19:07;;;;;;;25.62;7.78;;;;;;;3.81;74.74;101885.50;4411915;32;20045;-74
2021/04/04 04:21:35;;;;;;;28.33;8.45;;;;;;;3.78;75.01;101875.09;4406174;32;20049;-74
2021/04/04 04:24:03;;;;;;;22.48;7.97;;;;;;;3.82;74.77;101865.62;4405185;32;20079;-74
2021/04/04 04:26:32;;;;;;;20.90;7.60;;;;;;;3.81;74.76;101866.00;4414213;32;20117;-74
2021/04/04 04:28:59;;;;;;;32.40;8.70;;;;;;;3.78;74.88;101859.16;4412835;32;20099;-74
2021/04/04 04:31:43;;;;;;;33.65;9.05;;;;;;;3.72;75.28;101862.62;4413026;32;20068;-74
2021/04/04 04:34:10;;;;;;;22.55;8.07;;;;;;;3.70;75.32;101859.38;4412400;32;20619;-75
2021/04/04 04:36:39;;;;;;;31.27;8.10;;;;;;;3.69;75.51;101866.91;4412644;32;20111;-74
2021/04/04 04:39:08;;;;;;;28.35;8.23;;;;;;;3.71;75.50;101855.41;4413401;32;20078;-74
2021/04/04 04:41:40;;;;;;;18.50;7.25;;;;;;;3.68;75.52;101851.41;4413469;32;20154;-74
2021/04/04 04:44:08;;;;;;;21.15;7.55;;;;;;;3.66;75.59;101847.37;4414135;32;20034;-74
2021/04/04 04:46:37;;;;;;;28.10;8.02;;;;;;;3.69;75.58;101843.87;4408637;32;20050;-74
2021/04/04 04:49:05;;;;;;;24.65;7.45;;;;;;;3.66;75.52;101839.03;4408408;32;20089;-74
2021/04/04 04:51:31;;;;;;;21.20;7.25;;;;;;;3.67;75.36;101851.75;4403457;32;20431;-74
2021/04/04 04:53:57;;;;;;;17.95;7.85;;;;;;;3.54;75.90;101831.62;4402878;32;20037;-74
2021/04/04 04:56:24;;;;;;;18.62;7.15;;;;;;;3.49;76.14;101831.09;4406379;32;20034;-74
2021/04/04 04:58:51;;;;;;;18.48;7.15;;;;;;;3.47;76.16;101816.75;4405151;32;20053;-74
2021/04/04 05:01:20;;;;;;;17.80;7.03;;;;;;;3.44;76.19;101823.81;4407293;32;20073;-74
2021/04/04 05:03:48;;;;;;;22.23;6.70;;;;;;;3.42;76.53;101812.28;4404976;32;20034;-74
2021/04/04 05:06:14;;;;;;;24.75;7.30;;;;;;;3.43;76.50;101813.06;4404240;32;20162;-74
2021/04/04 05:08:43;;;;;;;24.92;7.80;;;;;;;3.56;75.98;101818.12;4402596;32;20130;-74
2021/04/04 05:11:12;;;;;;;21.00;7.32;;;;;;;3.58;75.81;101806.63;4403928;32;20107;-74
2021/04/04 05:13:39;;;;;;;20.48;7.30;;;;;;;3.56;75.95;101804.22;4403908;32;20062;-74
2021/04/04 05:16:08;;;;;;;23.52;8.00;;;;;;;3.58;76.01;101801.06;4405672;32;20042;-74
2021/04/04 05:18:34;;;;;;;28.90;8.10;;;;;;;3.72;75.45;101802.16;4406584;32;20080;-74
2021/04/04 05:21:00;;;;;;;27.87;9.70;;;;;;;3.53;76.04;101798.59;4404109;32;20081;-74
2021/04/04 05:23:26;;;;;;;21.27;8.45;;;;;;;3.55;75.81;101797.03;4406571;32;20034;-74
2021/04/04 05:25:53;;;;;;;22.15;8.45;;;;;;;3.53;75.83;101790.25;4404606;32;20107;-74
2021/04/04 05:28:19;;;;;;;26.42;8.73;;;;;;;3.51;76.18;101793.37;4403441;32;20085;-74
2021/04/04 05:30:45;;;;;;;24.12;8.40;;;;;;;3.51;76.20;101792.56;4405111;32;20288;-74
2021/04/04 05:33:11;;;;;;;28.02;8.70;;;;;;;3.54;76.20;101789.87;4408102;32;20082;-74
2021/04/04 05:35:39;;;;;;;24.73;9.27;;;;;;;3.53;76.03;101788.25;4408417;32;20105;-74
2021/04/04 05:38:07;;;;;;;24.35;8.95;;;;;;;3.56;76.39;101790.28;4406589;32;20064;-74
2021/04/04 05:40:33;;;;;;;22.02;8.70;;;;;;;3.65;76.05;101779.75;4409617;32;20134;-74
2021/04/04 05:43:03;;;;;;;23.48;9.23;;;;;;;3.69;75.66;101782.63;4405902;32;20111;-74
2021/04/04 05:48:34;;;;;;;20.90;8.45;;;;;;;4.18;74.88;101794.72;3984019;32;15024885;-75
2021/04/04 05:51:24;;;;;;;26.60;8.43;;;;;;;4.18;74.88;101794.72;4441284;32;20234;-74
2021/04/04 05:54:25;;;;;;;27.95;8.82;;;;;;;3.75;75.99;101793.06;4438328;32;20144;-75
2021/04/04 05:56:53;;;;;;;34.78;9.40;;;;;;;3.99;75.24;101794.75;4440785;32;20065;-74
2021/04/04 05:59:29;;;;;;;27.35;9.23;;;;;;;3.85;75.66;101789.72;4439477;32;20044;-74
2021/04/04 06:10:20;;;;;;;22.90;7.95;;;;;;;4.54;74.16;101774.66;3999843;31;15020498;-74
2021/04/04 06:13:26;;;;;;;20.05;7.70;;;;;;;4.54;74.16;101774.66;4450607;32;20131;-74
2021/04/04 06:18:54;;;;;;;20.15;8.27;;;;;;;4.95;72.79;101776.53;3979081;31;15705921;-74
2021/04/04 06:21:33;;;;;;;28.52;8.57;;;;;;;4.95;72.79;101776.53;4450454;32;20096;-74
2021/04/04 06:32:17;;;;;;;19.10;7.63;;;;;;;4.84;72.26;101783.91;4000096;31;15036967;-74
2021/04/04 06:34:54;;;;;;;24.67;8.13;;;;;;;4.89;71.83;101780.00;4454081;32;20156;-75
2021/04/04 06:40:27;;;;;;;29.50;7.87;;;;;;;5.61;69.92;101773.03;3985445;32;15025064;-74
2021/04/04 06:48:48;;;;;;;24.45;7.62;;;;;;;5.95;69.89;101761.53;3982973;32;15025456;-74
2021/04/04 06:54:31;;;;;;;17.98;7.60;;;;;;;6.22;69.44;101759.41;3983608;32;15024949;-75
2021/04/04 07:00:03;;;;;;;23.52;8.55;;;;;;;6.54;68.10;101734.28;3957462;32;15724601;-75
2021/04/04 07:02:40;;;;;;;19.00;7.43;;;;;;;6.55;68.10;101745.31;4427387;32;20094;-74
2021/04/04 07:05:09;;;;;;;18.83;7.57;;;;;;;6.31;69.08;101729.13;4420498;32;20439;-74
2021/04/04 07:08:11;;;;;;;21.48;8.15;;;;;;;6.46;69.12;101730.88;4419331;32;20069;-75
2021/04/04 07:14:10;;;;;;;24.73;7.62;;;;;;;7.08;68.27;101720.50;3983156;32;15022459;-75
2021/04/04 07:17:07;;;;;;;26.00;7.75;;;;;;;7.33;67.79;101713.06;4439397;32;20037;-75
2021/04/04 07:25:43;;;;;;;15.90;6.35;;;;;;;8.92;63.40;101712.09;3984843;32;15021888;-73
2021/04/04 07:30:53;;;;;;;16.02;5.70;;;;;;;8.89;62.78;101705.28;3985403;32;15023527;-75
2021/04/04 07:39:08;;;;;;;12.82;5.28;;;;;;;10.69;56.22;101711.56;3981686;32;15026860;-72
2021/04/04 07:44:22;;;;;;;15.82;4.70;;;;;;;10.58;55.46;101715.69;3956574;32;15722598;-74
2021/04/04 07:47:01;;;;;;;13.50;4.57;;;;;;;10.74;54.29;101705.47;4433707;32;20041;-75
2021/04/04 07:49:37;;;;;;;16.00;5.43;;;;;;;11.03;53.87;101700.34;4421030;32;20029;-75
2021/04/04 07:52:13;;;;;;;14.98;4.87;;;;;;;11.19;52.90;101706.22;4431939;32;20132;-74
2021/04/04 07:54:52;;;;;;;14.25;5.03;;;;;;;11.38;52.70;101711.22;4434069;32;20117;-74
2021/04/04 07:57:26;;;;;;;14.02;5.20;;;;;;;11.57;52.16;101704.97;4435137;32;20511;-75
2021/04/04 07:59:57;;;;;;;16.10;5.87;;;;;;;11.66;51.95;101699.66;4436760;32;20099;-75
2021/04/04 08:02:29;;;;;;;15.85;5.20;;;;;;;11.92;50.50;101696.84;4420925;32;20070;-75
2021/04/04 08:05:05;;;;;;;18.50;5.70;;;;;;;12.21;49.47;101697.22;4424865;32;20116;-74
2021/04/04 08:10:33;;;;;;;14.70;5.35;;;;;;;12.40;48.97;101682.41;3983614;32;15024749;-72
2021/04/04 08:18:29;;;;;;;13.50;4.80;;;;;;;12.56;47.52;101698.66;3983131;32;15029039;-74
2021/04/04 08:20:59;;;;;;;15.32;5.53;;;;;;;12.56;47.52;101698.66;4435118;32;20089;-74
2021/04/04 08:23:30;;;;;;;13.73;5.37;;;;;;;12.21;48.47;101685.91;4437094;32;20033;-74
2021/04/04 08:26:01;;;;;;;12.55;5.55;;;;;;;12.29;48.08;101687.41;4433140;32;20057;-74
2021/04/04 08:28:42;;;;;;;14.50;5.97;;;;;;;12.32;48.02;101677.28;4434246;32;20037;-74
2021/04/04 08:33:52;;;;;;;11.12;5.78;;;;;;;13.49;46.30;101686.81;3986459;32;15024463;-74
2021/04/04 08:36:21;;;;;;;16.83;6.70;;;;;;;13.49;46.30;101686.81;4439267;32;20076;-73
2021/04/04 08:38:48;;;;;;;12.73;6.10;;;;;;;13.28;46.20;101687.25;4440206;32;20077;-73
2021/04/04 08:41:18;;;;;;;13.13;6.40;;;;;;;13.49;45.98;101683.19;4440871;32;20073;-73
2021/04/04 08:43:50;;;;;;;14.57;6.37;;;;;;;13.62;45.60;101684.91;4439325;32;20077;-74
2021/04/04 08:49:16;;;;;;;12.77;6.30;;;;;;;13.88;45.53;101683.16;3996236;31;15015847;-73
2021/04/04 08:51:50;;;;;;;13.13;6.15;;;;;;;13.95;45.25;101697.13;4452963;32;20128;-73
2021/04/04 08:54:19;;;;;;;11.52;6.00;;;;;;;13.93;44.76;101691.13;4454557;32;20140;-73
2021/04/04 08:56:46;;;;;;;14.05;6.40;;;;;;;14.01;45.46;101687.69;4456599;32;20068;-73
2021/04/04 08:59:15;;;;;;;12.77;5.95;;;;;;;14.06;45.32;101687.16;4454180;32;20057;-74
2021/04/04 09:01:46;;;;;;;13.77;6.37;;;;;;;14.13;44.90;101689.03;4447676;32;20029;-74
2021/04/04 09:04:12;;;;;;;19.00;6.12;;;;;;;14.18;44.99;101688.50;4440867;32;20442;-73
2021/04/04 09:09:18;;;;;;;12.57;6.62;;;;;;;14.69;45.24;101675.50;3956347;32;15722619;-75
2021/04/04 09:11:46;;;;;;;14.50;6.18;;;;;;;14.69;45.24;101675.50;4422868;32;20437;-75
2021/04/04 09:14:15;;;;;;;16.35;6.60;;;;;;;14.48;45.48;101661.91;4433649;32;20556;-74
2021/04/04 09:16:51;;;;;;;12.93;5.93;;;;;;;14.69;44.89;101639.47;4433937;32;20053;-74
2021/04/04 09:19:26;;;;;;;13.27;5.68;;;;;;;15.02;44.43;101631.69;4438048;32;20414;-75
2021/04/04 09:21:54;;;;;;;12.00;5.95;;;;;;;15.00;43.55;101632.16;4433129;32;20072;-75
2021/04/04 09:24:21;;;;;;;11.15;5.40;;;;;;;15.11;43.31;101637.53;4432884;32;20033;-75
2021/04/04 09:26:46;;;;;;;15.25;5.10;;;;;;;14.95;43.35;101627.03;4436774;32;20041;-74
2021/04/04 09:29:12;;;;;;;14.90;5.80;;;;;;;14.96;43.05;101624.97;4434764;32;20089;-75
2021/04/04 09:31:39;;;;;;;12.27;5.53;;;;;;;14.91;42.93;101631.22;4437271;32;20098;-75
2021/04/04 09:34:09;;;;;;;11.65;4.80;;;;;;;14.97;42.86;101641.53;4434359;32;20033;-75
2021/04/04 09:36:40;;;;;;;13.43;5.03;;;;;;;15.33;42.20;101642.12;4435770;32;20109;-75
2021/04/04 09:39:09;;;;;;;11.73;5.50;;;;;;;15.62;41.66;101639.28;4433368;32;20060;-75
2021/04/04 09:41:36;;;;;;;13.35;5.10;;;;;;;16.19;40.94;101633.37;4436347;32;20041;-75
2021/04/04 09:44:04;;;;;;;15.93;5.55;;;;;;;16.39;40.43;101630.31;4434907;32;20412;-75
2021/04/04 09:46:30;;;;;;;12.75;5.70;;;;;;;16.80;39.68;101636.59;4430680;32;20136;-75
2021/04/04 09:48:56;;;;;;;13.98;5.97;;;;;;;16.93;39.15;101643.03;4435743;32;20081;-75
2021/04/04 09:51:22;;;;;;;9.57;4.93;;;;;;;16.89;38.79;101631.00;4433908;32;20042;-75
2021/04/04 09:53:50;;;;;;;11.38;5.25;;;;;;;17.09;38.58;101620.09;4432642;32;20064;-75
2021/04/04 09:56:19;;;;;;;9.38;4.78;;;;;;;16.92;38.86;101620.72;4433745;32;20059;-75
2021/04/04 09:58:47;;;;;;;15.05;5.30;;;;;;;17.20;39.01;101625.38;4434487;32;20088;-75
2021/04/04 10:01:16;;;;;;;16.15;5.50;;;;;;;17.28;38.77;101632.41;4433525;32;20421;-75
2021/04/04 10:03:53;;;;;;;12.75;5.70;;;;;;;17.29;38.75;101629.09;4437275;32;20099;-75
2021/04/04 10:06:20;;;;;;;13.10;4.87;;;;;;;17.26;38.58;101618.62;4436617;32;20073;-75
2021/04/04 10:08:55;;;;;;;14.73;5.18;;;;;;;17.18;38.10;101616.53;4429886;32;21181;-75
2021/04/04 10:11:21;;;;;;;13.15;5.07;;;;;;;17.04;37.81;101612.16;4429988;32;20133;-75
2021/04/04 10:13:47;;;;;;;11.70;5.07;;;;;;;17.39;36.88;101598.63;4431267;32;20238;-75
2021/04/04 10:16:21;;;;;;;9.88;4.87;;;;;;;17.34;36.89;101588.66;4433314;32;20073;-75
2021/04/04 10:21:59;;;;;;;12.13;4.82;;;;;;;18.39;33.87;101574.25;3981989;32;15022069;-73
2021/04/04 10:24:35;;;;;;;12.10;4.15;;;;;;;18.39;33.87;101574.25;4435240;32;20033;-73
2021/04/04 10:32:50;;;;;;;13.20;5.03;;;;;;;18.39;35.52;101560.00;3991998;31;15015054;-75
2021/04/04 10:38:18;;;;;;;12.68;4.97;;;;;;;17.94;36.19;101548.50;3983777;32;15025860;-74
2021/04/04 10:43:45;;;;;;;10.18;5.50;;;;;;;17.88;36.79;101529.16;3985300;32;15034458;-73
2021/04/04 10:46:13;;;;;;;14.40;4.95;;;;;;;17.92;37.26;101526.94;4437120;32;20080;-74
2021/04/04 10:48:43;;;;;;;11.93;5.20;;;;;;;17.99;37.08;101527.91;4435827;32;20113;-74
2021/04/04 10:51:11;;;;;;;12.68;5.00;;;;;;;18.24;36.65;101524.81;4436398;32;20065;-74
2021/04/04 10:53:38;;;;;;;11.70;4.80;;;;;;;18.76;35.61;101535.94;4437898;32;20037;-74
2021/04/04 10:56:07;;;;;;;12.77;4.87;;;;;;;19.48;34.90;101521.56;4438969;32;20087;-74
2021/04/04 10:58:34;;;;;;;11.15;4.78;;;;;;;19.86;33.82;101515.19;4439289;32;20093;-74
2021/04/04 11:01:02;;;;;;;13.60;5.60;;;;;;;19.77;33.54;101513.19;4434588;32;20099;-74
2021/04/04 11:03:28;;;;;;;12.23;4.95;;;;;;;19.73;34.24;101513.34;4423443;32;20112;-74
2021/04/04 11:05:55;;;;;;;11.65;5.57;;;;;;;19.94;34.04;101511.50;4423157;32;20045;-74
2021/04/04 11:08:21;;;;;;;12.95;5.60;;;;;;;20.28;33.43;101504.50;4423035;32;20504;-74
2021/04/04 11:10:49;;;;;;;12.48;5.30;;;;;;;20.60;33.04;101495.03;4424372;32;20077;-74
2021/04/04 11:13:16;;;;;;;10.00;5.07;;;;;;;20.69;32.71;101497.81;4423601;32;20452;-74
2021/04/04 11:15:50;;;;;;;12.50;5.82;;;;;;;20.67;32.53;101486.06;4424319;32;20097;-74
2021/04/04 11:18:23;;;;;;;11.95;5.80;;;;;;;20.87;32.86;101478.41;4422448;32;20065;-74
2021/04/04 11:20:53;;;;;;;14.75;6.37;;;;;;;21.13;32.60;101475.75;4423855;32;20101;-74
2021/04/04 11:23:20;;;;;;;14.35;6.00;;;;;;;20.91;33.01;101490.44;4423050;32;20189;-74
2021/04/04 11:25:46;;;;;;;17.70;7.15;;;;;;;20.65;33.67;101492.25;4422633;32;20073;-74
2021/04/04 11:28:17;;;;;;;17.23;6.87;;;;;;;21.08;33.14;101476.47;4420866;32;20057;-74
2021/04/04 11:30:45;;;;;;;18.80;7.55;;;;;;;21.33;32.88;101478.72;4424402;32;20404;-74
2021/04/04 11:36:14;;;;;;;16.85;6.80;;;;;;;21.88;32.27;101448.09;3984199;32;15093408;-74
2021/04/04 11:41:48;;;;;;;15.55;6.80;;;;;;;21.86;32.27;101441.25;3956598;32;15727110;-74
2021/04/04 12:02:45;;;;;;;17.65;7.97;;;;;;;22.14;31.30;101414.53;3969741;32;15021447;-74
2021/04/04 12:05:13;;;;;;;15.32;7.43;;;;;;;22.14;31.30;101414.53;4424769;32;20068;-76
2021/04/04 12:10:27;;;;;;;13.63;7.80;;;;;;;22.47;31.20;101428.47;4000865;31;15026941;-76
2021/04/04 12:12:54;;;;;;;19.80;7.62;;;;;;;22.47;31.20;101428.47;4456821;32;20132;-76
2021/04/04 12:15:22;;;;;;;14.38;8.40;;;;;;;22.38;31.18;101429.44;4453974;32;20053;-76
2021/04/04 12:17:57;;;;;;;17.83;7.60;;;;;;;22.36;31.16;101426.28;4454738;32;20061;-76
2021/04/04 12:20:27;;;;;;;18.95;7.00;;;;;;;22.90;30.08;101424.53;4457089;32;20096;-74
2021/04/04 12:22:53;;;;;;;15.02;7.25;;;;;;;23.12;29.64;101405.41;4456859;32;20079;-75
2021/04/04 12:27:57;;;;;;;19.02;7.28;;;;;;;24.93;27.54;101386.66;3987095;32;15024549;-74
2021/04/04 12:33:15;;;;;;;19.48;7.60;;;;;;;24.80;26.97;101381.44;3983451;32;15026143;-75
2021/04/04 12:35:44;;;;;;;13.13;6.12;;;;;;;24.80;26.97;101381.44;4441763;32;20025;-75
2021/04/04 12:41:00;;;;;;;20.70;7.33;;;;;;;25.14;27.02;101354.19;3996028;31;15019302;-74
2021/04/04 12:43:27;;;;;;;15.10;6.80;;;;;;;25.14;27.02;101354.19;4455653;32;20172;-75
2021/04/04 12:45:53;;;;;;;23.15;6.90;;;;;;;23.96;28.88;101350.06;4455647;32;20080;-75
2021/04/04 12:48:21;;;;;;;14.27;6.97;;;;;;;23.96;28.90;101347.19;4456738;32;20072;-75
2021/04/04 12:51:02;;;;;;;17.00;6.82;;;;;;;24.21;28.32;101354.84;4456813;32;20093;-75
2021/04/04 12:53:30;;;;;;;20.92;6.50;;;;;;;24.33;27.92;101359.31;4456752;32;20055;-75
2021/04/04 12:55:57;;;;;;;16.67;6.70;;;;;;;23.78;27.45;101366.94;4457708;32;20073;-75
2021/04/04 12:58:32;;;;;;;17.10;7.22;;;;;;;23.75;27.54;101365.91;4456256;32;20053;-75
2021/04/04 13:00:58;;;;;;;17.27;7.07;;;;;;;22.88;28.98;101358.22;4454782;32;20103;-75
2021/04/04 13:03:31;;;;;;;20.58;7.50;;;;;;;23.07;29.35;101365.94;4447832;32;20084;-75
2021/04/04 13:05:57;;;;;;;15.80;7.00;;;;;;;23.10;29.33;101367.03;4448282;32;20083;-75
2021/04/04 13:13:43;;;;;;;23.02;7.68;;;;;;;22.87;28.09;101371.00;3967957;32;15021808;-74
2021/04/04 13:16:11;;;;;;;17.75;7.68;;;;;;;22.87;28.09;101371.00;4416998;32;20104;-74
2021/04/04 13:18:45;;;;;;;23.17;8.05;;;;;;;21.87;29.40;101365.47;4416957;32;20069;-77
2021/04/04 13:21:14;;;;;;;;;;;;;;;21.24;30.33;101353.66;4420272;32;20105;-74
2021/04/04 13:23:43;;;;;;;20.67;8.60;;;;;;;21.08;31.32;101333.34;4418533;32;19957;-74
2021/04/04 13:26:14;;;;;;;14.00;7.32;;;;;;;21.49;31.36;101326.41;4418499;32;20056;-75
2021/04/04 13:28:41;;;;;;;16.17;7.82;;;;;;;22.24;30.61;101320.56;4420231;32;20038;-74
2021/04/04 13:31:10;;;;;;;18.25;8.20;;;;;;;22.88;28.91;101338.91;4418769;32;20092;-75
2021/04/04 13:33:37;;;;;;;23.25;8.80;;;;;;;22.63;29.19;101313.94;4419730;32;20030;-76
2021/04/04 13:38:52;;;;;;;17.45;7.57;;;;;;;22.84;29.25;101317.50;3989803;32;15015420;-74
2021/04/04 13:41:19;;;;;;;15.70;7.35;;;;;;;22.84;29.25;101317.50;4438855;32;20140;-75
2021/04/04 13:43:48;;;;;;;15.27;6.87;;;;;;;22.71;28.45;101291.31;4439950;32;20148;-75